createdAt,value
2023-04-21T00:00:25.592Z,367
2023-04-21T00:01:28.018Z,376
2023-04-21T00:02:24.732Z,375
2023-04-21T00:03:24.990Z,369
2023-04-21T00:04:24.292Z,375
2023-04-21T00:05:24.926Z,362
2023-04-21T00:06:24.180Z,367
2023-04-21T00:07:24.424Z,370
2023-04-21T00:08:24.762Z,369
2023-04-21T00:09:23.771Z,372
2023-04-21T00:10:24.486Z,367
2023-04-21T00:11:24.465Z,368
2023-04-21T00:12:24.478Z,362
2023-04-21T00:13:24.532Z,350
2023-04-21T00:14:23.986Z,366
2023-04-21T00:15:24.058Z,360
2023-04-21T00:16:24.745Z,365
2023-04-21T00:17:24.577Z,367
2023-04-21T00:18:24.676Z,361
2023-04-21T00:19:24.370Z,368
2023-04-21T00:20:24.509Z,372
2023-04-21T00:21:24.351Z,369
2023-04-21T00:22:24.146Z,351
2023-04-21T00:23:24.496Z,357
2023-04-21T00:24:24.371Z,361
2023-04-21T00:25:24.270Z,372
2023-04-21T00:26:24.307Z,379
2023-04-21T00:27:24.397Z,367
2023-04-21T00:28:24.387Z,361
2023-04-21T00:29:24.479Z,364
2023-04-21T00:30:24.615Z,370
2023-04-21T00:31:24.313Z,376
2023-04-21T00:32:24.422Z,365
2023-04-21T00:33:24.576Z,360
2023-04-21T00:34:23.860Z,367
2023-04-21T00:35:24.741Z,373
2023-04-21T00:36:24.200Z,380
2023-04-21T00:37:24.133Z,377
2023-04-21T00:38:23.947Z,366
2023-04-21T00:39:24.226Z,363
2023-04-21T00:40:24.589Z,362
2023-04-21T00:41:24.327Z,369
2023-04-21T00:42:24.395Z,365
2023-04-21T00:44:23.900Z,366
2023-04-21T00:45:24.368Z,373
2023-04-21T00:46:24.360Z,364
2023-04-21T00:47:24.259Z,353
2023-04-21T00:48:24.499Z,356
2023-04-21T00:49:24.281Z,355
2023-04-21T00:51:24.203Z,357
2023-04-21T00:52:24.483Z,356
2023-04-21T00:53:24.332Z,362
2023-04-21T00:54:24.407Z,364
2023-04-21T00:55:24.153Z,368
2023-04-21T00:56:24.611Z,370
2023-04-21T00:57:24.189Z,369
2023-04-21T00:58:24.159Z,361
2023-04-21T00:59:24.169Z,354
2023-04-21T01:01:29.429Z,365
2023-04-21T01:02:24.947Z,366
2023-04-21T01:03:25.011Z,362
2023-04-21T01:04:24.924Z,372
2023-04-21T01:05:24.330Z,382
2023-04-21T01:06:24.529Z,384
2023-04-21T01:07:24.241Z,382
2023-04-21T01:08:24.506Z,383
2023-04-21T01:09:24.576Z,369
2023-04-21T01:10:24.821Z,363
2023-04-21T01:11:24.184Z,374
2023-04-21T01:12:24.534Z,379
2023-04-21T01:13:24.792Z,375
2023-04-21T01:14:24.044Z,372
2023-04-21T01:15:24.619Z,365
2023-04-21T01:17:24.131Z,368
2023-04-21T01:21:23.723Z,361
2023-04-21T01:22:24.370Z,368
2023-04-21T01:23:24.099Z,366
2023-04-21T01:24:24.064Z,373
2023-04-21T01:25:24.191Z,367
2023-04-21T01:26:24.303Z,363
2023-04-21T01:27:24.075Z,362
2023-04-21T01:28:23.919Z,370
2023-04-21T01:30:24.958Z,363
2023-04-21T01:31:23.999Z,372
2023-04-21T01:32:24.312Z,370
2023-04-21T01:33:24.315Z,363
2023-04-21T01:34:24.162Z,370
2023-04-21T01:35:24.659Z,374
2023-04-21T01:36:24.089Z,360
2023-04-21T01:37:23.995Z,355
2023-04-21T01:38:24.320Z,366
2023-04-21T01:40:24.059Z,369
2023-04-21T01:42:24.312Z,368
2023-04-21T01:43:24.267Z,369
2023-04-21T01:44:23.818Z,376
2023-04-21T01:45:24.341Z,370
2023-04-21T01:46:24.349Z,366
2023-04-21T01:48:24.275Z,368
2023-04-21T01:49:24.154Z,362
2023-04-21T01:50:24.972Z,360
2023-04-21T01:51:23.963Z,368
2023-04-21T01:52:23.830Z,364
2023-04-21T01:53:24.121Z,368
2023-04-21T01:54:24.232Z,370
2023-04-21T01:55:24.204Z,361
2023-04-21T01:56:24.292Z,356
2023-04-21T01:57:23.971Z,361
2023-04-21T01:58:24.434Z,362
2023-04-21T01:59:24.554Z,365
2023-04-21T02:00:25.404Z,366
2023-04-21T02:02:24.189Z,367
2023-04-21T02:04:24.252Z,369
2023-04-21T02:05:24.203Z,374
2023-04-21T02:07:23.710Z,377
2023-04-21T02:08:24.486Z,368
2023-04-21T02:09:24.294Z,375
2023-04-21T02:10:24.642Z,381
2023-04-21T02:11:23.988Z,378
2023-04-21T02:12:24.564Z,367
2023-04-21T02:13:23.783Z,377
2023-04-21T02:14:24.655Z,379
2023-04-21T02:15:24.454Z,382
2023-04-21T02:16:24.402Z,387
2023-04-21T02:17:24.577Z,373
2023-04-21T02:18:24.913Z,375
2023-04-21T02:19:24.364Z,362
2023-04-21T02:20:24.634Z,361
2023-04-21T02:21:24.852Z,371
2023-04-21T02:22:25.239Z,367
2023-04-21T02:23:24.120Z,373
2023-04-21T02:24:24.044Z,376
2023-04-21T02:25:24.575Z,361
2023-04-21T02:26:24.252Z,353
2023-04-21T02:27:24.733Z,364
2023-04-21T02:28:23.837Z,372
2023-04-21T02:29:24.293Z,374
2023-04-21T02:31:29.381Z,372
2023-04-21T02:32:26.230Z,371
2023-04-21T02:33:29.491Z,380
2023-04-21T02:34:24.225Z,383
2023-04-21T02:35:29.279Z,378
2023-04-21T02:36:24.063Z,374
2023-04-21T02:37:24.220Z,372
2023-04-21T02:38:24.116Z,381
2023-04-21T02:39:29.247Z,373
2023-04-21T02:40:24.788Z,381
2023-04-21T02:41:24.252Z,379
2023-04-21T02:42:24.175Z,369
2023-04-21T02:43:24.052Z,358
2023-04-21T02:45:24.911Z,359
2023-04-21T02:46:23.826Z,367
2023-04-21T02:47:23.895Z,369
2023-04-21T02:48:24.008Z,374
2023-04-21T02:49:24.273Z,367
2023-04-21T02:50:24.629Z,361
2023-04-21T02:51:24.540Z,357
2023-04-21T02:52:23.884Z,359
2023-04-21T02:53:24.362Z,373
2023-04-21T02:54:24.102Z,378
2023-04-21T02:55:23.756Z,382
2023-04-21T02:56:24.231Z,380
2023-04-21T02:57:23.807Z,378
2023-04-21T02:58:24.591Z,380
2023-04-21T02:59:24.407Z,374
2023-04-21T03:00:25.559Z,378
2023-04-21T03:01:24.855Z,372
2023-04-21T03:02:24.385Z,376
2023-04-21T03:03:24.664Z,377
2023-04-21T03:05:24.570Z,375
2023-04-21T03:06:24.320Z,381
2023-04-21T03:07:24.393Z,372
2023-04-21T03:08:24.392Z,375
2023-04-21T03:09:24.361Z,379
2023-04-21T03:10:24.864Z,372
2023-04-21T03:11:25.002Z,380
2023-04-21T03:12:24.582Z,379
2023-04-21T03:13:24.106Z,374
2023-04-21T03:15:24.705Z,380
2023-04-21T03:16:24.193Z,375
2023-04-21T03:17:24.463Z,380
2023-04-21T03:18:24.267Z,370
2023-04-21T03:19:24.102Z,362
2023-04-21T03:20:24.562Z,360
2023-04-21T03:21:24.645Z,366
2023-04-21T03:22:24.542Z,379
2023-04-21T03:23:24.218Z,376
2023-04-21T03:24:24.399Z,375
2023-04-21T03:26:28.778Z,367
2023-04-21T03:28:24.120Z,376
2023-04-21T03:29:23.892Z,374
2023-04-21T03:30:24.696Z,377
2023-04-21T03:31:24.158Z,366
2023-04-21T03:32:24.575Z,365
2023-04-21T03:33:24.308Z,367
2023-04-21T03:34:24.189Z,365
2023-04-21T03:35:23.822Z,367
2023-04-21T03:37:24.361Z,377
2023-04-21T03:39:24.273Z,380
2023-04-21T03:40:24.527Z,374
2023-04-21T03:43:24.530Z,377
2023-04-21T03:44:24.244Z,385
2023-04-21T03:45:24.487Z,378
2023-04-21T03:46:24.429Z,383
2023-04-21T03:47:24.617Z,380
2023-04-21T03:49:24.273Z,380
2023-04-21T03:50:24.228Z,374
2023-04-21T03:51:24.091Z,369
2023-04-21T03:53:24.223Z,384
2023-04-21T03:54:24.288Z,386
2023-04-21T03:55:24.159Z,376
2023-04-21T03:56:24.059Z,374
2023-04-21T03:57:24.171Z,381
2023-04-21T03:58:24.346Z,385
2023-04-21T03:59:24.505Z,384
2023-04-21T04:00:25.895Z,381
2023-04-21T04:01:23.810Z,384
2023-04-21T04:02:24.375Z,386
2023-04-21T04:03:24.752Z,389
2023-04-21T04:04:24.655Z,397
2023-04-21T04:05:24.707Z,401
2023-04-21T04:06:24.528Z,402
2023-04-21T04:07:24.111Z,396
2023-04-21T04:08:24.159Z,393
2023-04-21T04:09:24.007Z,388
2023-04-21T04:10:24.524Z,387
2023-04-21T04:11:24.272Z,381
2023-04-21T04:12:24.338Z,376
2023-04-21T04:13:24.066Z,392
2023-04-21T04:14:23.809Z,393
2023-04-21T04:15:24.882Z,384
2023-04-21T04:16:24.367Z,382
2023-04-21T04:17:24.725Z,380
2023-04-21T04:18:24.383Z,379
2023-04-21T04:19:24.272Z,385
2023-04-21T04:20:24.377Z,392
2023-04-21T04:21:24.172Z,389
2023-04-21T04:22:24.397Z,374
2023-04-21T04:23:24.578Z,377
2023-04-21T04:24:24.247Z,376
2023-04-21T04:25:25.075Z,380
2023-04-21T04:26:24.075Z,389
2023-04-21T04:27:23.866Z,383
2023-04-21T04:29:24.100Z,385
2023-04-21T04:31:24.037Z,387
2023-04-21T04:32:24.739Z,396
2023-04-21T04:33:24.387Z,397
2023-04-21T04:35:24.498Z,393
2023-04-21T04:36:24.428Z,396
2023-04-21T04:37:24.518Z,393
2023-04-21T04:38:24.421Z,385
2023-04-21T04:39:24.523Z,390
2023-04-21T04:40:24.936Z,392
2023-04-21T04:41:24.505Z,386
2023-04-21T04:42:24.447Z,392
2023-04-21T04:43:24.899Z,405
2023-04-21T04:44:24.562Z,401
2023-04-21T04:45:24.351Z,393
2023-04-21T04:46:24.294Z,398
2023-04-21T04:47:24.808Z,386
2023-04-21T04:48:24.904Z,391
2023-04-21T04:49:24.597Z,392
2023-04-21T04:50:24.604Z,391
2023-04-21T04:51:23.825Z,388
2023-04-21T04:52:24.314Z,391
2023-04-21T04:53:24.405Z,392
2023-04-21T04:54:24.637Z,391
2023-04-21T04:55:24.351Z,401
2023-04-21T04:56:24.527Z,397
2023-04-21T04:57:24.986Z,396
2023-04-21T04:58:24.533Z,400
2023-04-21T05:00:25.412Z,397
2023-04-21T05:01:24.501Z,384
2023-04-21T05:02:30.448Z,394
2023-04-21T05:03:24.808Z,400
2023-04-21T05:05:24.497Z,393
2023-04-21T05:06:24.795Z,397
2023-04-21T05:07:24.960Z,395
2023-04-21T05:08:24.157Z,391
2023-04-21T05:09:24.163Z,381
2023-04-21T05:10:25.418Z,382
2023-04-21T05:11:24.927Z,402
2023-04-21T05:12:24.821Z,397
2023-04-21T05:13:24.578Z,392
2023-04-21T05:14:24.170Z,390
2023-04-21T05:15:24.932Z,394
2023-04-21T05:16:24.400Z,387
2023-04-21T05:17:25.052Z,391
2023-04-21T05:18:24.421Z,387
2023-04-21T05:19:24.874Z,399
2023-04-21T05:20:24.498Z,397
2023-04-21T05:21:24.037Z,401
2023-04-21T05:22:24.475Z,394
2023-04-21T05:23:24.612Z,387
2023-04-21T05:24:24.928Z,384
2023-04-21T05:25:24.358Z,392
2023-04-21T05:26:24.568Z,401
2023-04-21T05:28:24.961Z,394
2023-04-21T05:31:24.639Z,398
2023-04-21T05:32:24.423Z,394
2023-04-21T05:33:24.869Z,402
2023-04-21T05:35:25.014Z,393
2023-04-21T05:36:24.513Z,392
2023-04-21T05:37:24.481Z,389
2023-04-21T05:38:24.698Z,387
2023-04-21T05:39:24.435Z,384
2023-04-21T05:40:24.869Z,397
2023-04-21T05:41:24.517Z,384
2023-04-21T05:42:25.207Z,389
2023-04-21T05:43:24.712Z,387
2023-04-21T05:44:24.365Z,389
2023-04-21T05:45:25.524Z,385
2023-04-21T05:46:25.007Z,380
2023-04-21T05:47:24.815Z,387
2023-04-21T05:49:24.262Z,396
2023-04-21T05:50:24.852Z,394
2023-04-21T05:52:24.374Z,383
2023-04-21T05:53:24.687Z,376
2023-04-21T05:55:24.397Z,382
2023-04-21T05:56:24.569Z,387
2023-04-21T05:57:24.801Z,386
2023-04-21T05:58:24.320Z,382
2023-04-21T05:59:24.366Z,404
2023-04-21T06:00:25.233Z,407
2023-04-21T06:01:24.785Z,395
2023-04-21T06:02:24.243Z,384
2023-04-21T06:03:25.353Z,387
2023-04-21T06:04:25.015Z,379
2023-04-21T06:05:24.855Z,386
2023-04-21T06:06:24.327Z,387
2023-04-21T06:07:24.241Z,375
2023-04-21T06:08:25.262Z,376
2023-04-21T06:09:24.382Z,374
2023-04-21T06:11:24.386Z,375
2023-04-21T06:12:24.438Z,381
2023-04-21T06:13:25.030Z,377
2023-04-21T06:14:24.581Z,372
2023-04-21T06:16:24.592Z,387
2023-04-21T06:17:25.439Z,389
2023-04-21T06:18:24.919Z,387
2023-04-21T06:19:24.707Z,373
2023-04-21T06:20:24.870Z,371
2023-04-21T06:21:24.598Z,373
2023-04-21T06:22:24.788Z,380
2023-04-21T06:23:24.330Z,365
2023-04-21T06:25:24.773Z,371
2023-04-21T06:26:24.003Z,377
2023-04-21T06:27:24.207Z,372
2023-04-21T06:29:24.496Z,370
2023-04-21T06:30:25.340Z,374
2023-04-21T06:31:24.849Z,373
2023-04-21T06:34:24.574Z,373
2023-04-21T06:35:24.800Z,381
2023-04-21T06:36:24.672Z,378
2023-04-21T06:37:24.542Z,366
2023-04-21T06:38:25.077Z,373
2023-04-21T06:39:24.864Z,381
2023-04-21T06:40:24.753Z,378
2023-04-21T06:42:25.016Z,359
2023-04-21T06:43:25.207Z,355
2023-04-21T06:44:25.084Z,360
2023-04-21T06:46:24.727Z,372
2023-04-21T06:47:24.948Z,380
2023-04-21T06:48:24.956Z,359
2023-04-21T06:49:24.859Z,356
2023-04-21T06:50:24.951Z,360
2023-04-21T06:51:24.959Z,363
2023-04-21T06:52:24.435Z,359
2023-04-21T06:53:24.778Z,365
2023-04-21T06:55:25.092Z,369
2023-04-21T06:56:24.968Z,384
2023-04-21T06:57:24.668Z,406
2023-04-21T06:58:24.633Z,407
2023-04-21T06:59:24.553Z,406
2023-04-21T07:00:25.973Z,399
2023-04-21T07:01:24.940Z,401
2023-04-21T07:02:25.427Z,393
2023-04-21T07:03:24.326Z,384
2023-04-21T07:05:24.572Z,375
2023-04-21T07:06:24.336Z,377
2023-04-21T07:07:25.232Z,387
2023-04-21T07:08:24.726Z,383
2023-04-21T07:09:24.852Z,386
2023-04-21T07:10:24.594Z,391
2023-04-21T07:11:24.470Z,387
2023-04-21T07:12:24.724Z,375
2023-04-21T07:13:24.988Z,372
2023-04-21T07:14:24.411Z,377
2023-04-21T07:15:25.049Z,375
2023-04-21T07:16:24.906Z,369
2023-04-21T07:17:24.905Z,366
2023-04-21T07:18:24.528Z,361
2023-04-21T07:19:24.505Z,377
2023-04-21T07:20:24.925Z,367
2023-04-21T07:21:24.345Z,354
2023-04-21T07:23:24.345Z,360
2023-04-21T07:24:24.165Z,356
2023-04-21T07:25:24.823Z,359
2023-04-21T07:26:24.476Z,364
2023-04-21T07:27:24.682Z,363
2023-04-21T07:28:24.613Z,362
2023-04-21T07:29:24.587Z,361
2023-04-21T07:30:25.688Z,372
2023-04-21T07:31:24.978Z,375
2023-04-21T07:32:24.438Z,363
2023-04-21T07:33:25.100Z,364
2023-04-21T07:34:24.368Z,361
2023-04-21T07:36:24.037Z,376
2023-04-21T07:37:25.023Z,368
2023-04-21T07:38:24.735Z,356
2023-04-21T07:39:24.904Z,355
2023-04-21T07:40:24.155Z,354
2023-04-21T07:41:24.602Z,363
2023-04-21T07:42:25.008Z,358
2023-04-21T07:43:24.536Z,367
2023-04-21T07:44:24.993Z,368
2023-04-21T07:45:25.136Z,358
2023-04-21T07:46:24.604Z,359
2023-04-21T07:47:24.825Z,366
2023-04-21T07:48:24.806Z,357
2023-04-21T07:50:25.185Z,363
2023-04-21T07:51:24.732Z,364
2023-04-21T07:52:24.935Z,360
2023-04-21T07:54:24.574Z,362
2023-04-21T07:55:24.625Z,361
2023-04-21T07:56:25.051Z,348
2023-04-21T07:57:24.792Z,358
2023-04-21T07:58:24.844Z,352
2023-04-21T07:59:25.433Z,364
2023-04-21T08:00:25.802Z,372
2023-04-21T08:01:24.448Z,369
2023-04-21T08:02:25.194Z,354
2023-04-21T08:03:25.174Z,345
2023-04-21T08:04:25.151Z,350
2023-04-21T08:05:27.392Z,361
2023-04-21T08:06:24.396Z,348
2023-04-21T08:07:24.930Z,359
2023-04-21T08:08:24.634Z,356
2023-04-21T08:09:25.201Z,341
2023-04-21T08:10:24.437Z,351
2023-04-21T08:11:24.958Z,361
2023-04-21T08:12:24.822Z,360
2023-04-21T08:13:24.131Z,354
2023-04-21T08:14:24.623Z,364
2023-04-21T08:16:24.996Z,353
2023-04-21T08:18:24.279Z,361
2023-04-21T08:19:24.785Z,360
2023-04-21T08:20:24.583Z,365
2023-04-21T08:21:24.164Z,364
2023-04-21T08:22:25.142Z,355
2023-04-21T08:23:24.873Z,341
2023-04-21T08:24:24.098Z,350
2023-04-21T08:25:25.097Z,355
2023-04-21T08:26:24.646Z,362
2023-04-21T08:27:24.131Z,360
2023-04-21T08:28:24.797Z,356
2023-04-21T08:29:24.169Z,363
2023-04-21T08:30:25.087Z,366
2023-04-21T08:31:24.733Z,359
2023-04-21T08:32:24.778Z,357
2023-04-21T08:33:24.132Z,364
2023-04-21T08:34:27.139Z,353
2023-04-21T08:35:25.056Z,356
2023-04-21T08:36:29.548Z,362
2023-04-21T08:37:24.935Z,358
2023-04-21T08:38:24.613Z,360
2023-04-21T08:39:24.096Z,359
2023-04-21T08:41:24.417Z,344
2023-04-21T08:42:24.661Z,349
2023-04-21T08:43:23.961Z,350
2023-04-21T08:44:24.369Z,346
2023-04-21T08:45:24.912Z,347
2023-04-21T08:46:24.415Z,334
2023-04-21T08:47:25.018Z,345
2023-04-21T08:48:24.829Z,352
2023-04-21T08:49:23.898Z,349
2023-04-21T08:50:24.645Z,359
2023-04-21T08:51:24.992Z,354
2023-04-21T08:52:24.834Z,353
2023-04-21T08:53:24.116Z,349
2023-04-21T08:54:24.589Z,351
2023-04-21T08:55:24.698Z,355
2023-04-21T08:56:24.529Z,352
2023-04-21T08:57:24.292Z,361
2023-04-21T08:58:25.014Z,357
2023-04-21T08:59:24.597Z,360
2023-04-21T09:00:26.133Z,354
2023-04-21T09:01:24.365Z,350
2023-04-21T09:02:25.137Z,358
2023-04-21T09:03:26.334Z,352
2023-04-21T09:04:24.601Z,351
2023-04-21T09:05:25.135Z,369
2023-04-21T09:06:24.833Z,365
2023-04-21T09:07:24.064Z,358
2023-04-21T09:08:24.256Z,350
2023-04-21T09:09:24.405Z,344
2023-04-21T09:10:25.243Z,362
2023-04-21T09:11:25.483Z,363
2023-04-21T09:12:24.450Z,355
2023-04-21T09:13:24.826Z,367
2023-04-21T09:15:24.312Z,370
2023-04-21T09:16:25.086Z,369
2023-04-21T09:17:24.721Z,354
2023-04-21T09:18:25.124Z,356
2023-04-21T09:19:24.975Z,365
2023-04-21T09:20:24.467Z,357
2023-04-21T09:21:24.220Z,351
2023-04-21T09:22:24.748Z,349
2023-04-21T09:23:25.021Z,356
2023-04-21T09:24:24.487Z,351
2023-04-21T09:25:27.223Z,355
2023-04-21T09:26:24.428Z,352
2023-04-21T09:27:24.912Z,345
2023-04-21T09:28:24.311Z,361
2023-04-21T09:29:24.302Z,365
2023-04-21T09:30:25.018Z,359
2023-04-21T09:31:24.326Z,353
2023-04-21T09:32:24.763Z,349
2023-04-21T09:33:30.677Z,364
2023-04-21T09:34:24.125Z,374
2023-04-21T09:35:24.535Z,367
2023-04-21T09:36:24.588Z,362
2023-04-21T09:37:24.770Z,364
2023-04-21T09:38:24.990Z,358
2023-04-21T09:39:40.500Z,346
2023-04-21T09:40:24.425Z,353
2023-04-21T09:41:24.647Z,340
2023-04-21T09:42:24.402Z,347
2023-04-21T09:44:24.847Z,350
2023-04-21T09:45:36.922Z,348
2023-04-21T09:46:24.666Z,359
2023-04-21T09:48:30.079Z,351
2023-04-21T09:49:24.675Z,356
2023-04-21T09:52:33.199Z,357
2023-04-21T09:53:24.214Z,355
2023-04-21T09:55:24.928Z,355
2023-04-21T09:56:24.226Z,361
2023-04-21T09:57:23.926Z,355
2023-04-21T09:58:24.071Z,357
2023-04-21T09:59:23.939Z,351
2023-04-21T10:00:25.207Z,353
2023-04-21T10:01:23.944Z,362
2023-04-21T10:02:24.351Z,363
2023-04-21T10:03:24.517Z,360
2023-04-21T10:04:24.535Z,359
2023-04-21T10:05:24.477Z,363
2023-04-21T10:06:24.595Z,360
2023-04-21T10:07:24.591Z,345
2023-04-21T10:08:24.330Z,358
2023-04-21T10:09:24.216Z,360
2023-04-21T10:10:24.119Z,358
2023-04-21T10:11:24.221Z,360
2023-04-21T10:12:38.243Z,356
2023-04-21T10:14:24.182Z,361
2023-04-21T10:15:24.665Z,367
2023-04-21T10:16:24.918Z,363
2023-04-21T10:17:24.862Z,361
2023-04-21T10:18:24.518Z,358
2023-04-21T10:19:24.114Z,353
2023-04-21T10:20:24.551Z,348
2023-04-21T10:21:24.357Z,346
2023-04-21T10:22:23.806Z,353
2023-04-21T10:23:24.373Z,358
2023-04-21T10:24:24.108Z,354
2023-04-21T10:25:24.412Z,366
2023-04-21T10:26:23.854Z,371
2023-04-21T10:27:24.090Z,373
2023-04-21T10:28:24.404Z,369
2023-04-21T10:29:23.906Z,355
2023-04-21T10:31:24.269Z,348
2023-04-21T10:32:24.756Z,346
2023-04-21T10:33:24.166Z,350
2023-04-21T10:34:24.283Z,356
2023-04-21T10:35:24.249Z,355
2023-04-21T10:36:24.147Z,350
2023-04-21T10:37:24.180Z,342
2023-04-21T10:38:24.552Z,347
2023-04-21T10:39:24.341Z,344
2023-04-21T10:40:33.136Z,345
2023-04-21T10:41:24.539Z,351
2023-04-21T10:42:24.107Z,342
2023-04-21T10:43:23.828Z,354
2023-04-21T10:44:24.232Z,345
2023-04-21T10:45:24.511Z,350
2023-04-21T10:46:24.567Z,358
2023-04-21T10:48:24.339Z,355
2023-04-21T10:49:24.492Z,356
2023-04-21T10:50:24.508Z,359
2023-04-21T10:51:24.292Z,352
2023-04-21T10:52:24.270Z,351
2023-04-21T10:53:24.075Z,344
2023-04-21T10:54:24.597Z,350
2023-04-21T10:55:24.764Z,357
2023-04-21T10:56:23.844Z,353
2023-04-21T10:57:24.444Z,349
2023-04-21T10:58:24.534Z,351
2023-04-21T10:59:23.983Z,345
2023-04-21T11:01:24.515Z,351
2023-04-21T11:02:24.478Z,348
2023-04-21T11:03:24.403Z,344
2023-04-21T11:04:24.846Z,353
2023-04-21T11:05:23.285Z,355
2023-04-21T11:06:24.648Z,350
2023-04-21T11:07:24.645Z,346
2023-04-21T11:08:26.887Z,335
2023-04-21T11:09:23.977Z,327
2023-04-21T11:10:24.648Z,324
2023-04-21T11:11:24.458Z,328
2023-04-21T11:12:24.190Z,343
2023-04-21T11:13:24.488Z,345
2023-04-21T11:14:24.401Z,341
2023-04-21T11:15:24.492Z,343
2023-04-21T11:16:24.204Z,347
2023-04-21T11:17:24.522Z,340
2023-04-21T11:18:24.634Z,327
2023-04-21T11:19:24.360Z,332
2023-04-21T11:20:24.659Z,341
2023-04-21T11:21:24.394Z,343
2023-04-21T11:23:24.005Z,349
2023-04-21T11:24:24.389Z,339
2023-04-21T11:25:24.538Z,330
2023-04-21T11:26:24.405Z,332
2023-04-21T11:27:24.038Z,348
2023-04-21T11:28:23.996Z,349
2023-04-21T11:29:24.090Z,340
2023-04-21T11:31:24.052Z,341
2023-04-21T11:32:23.862Z,345
2023-04-21T11:33:24.270Z,343
2023-04-21T11:34:24.377Z,351
2023-04-21T11:35:24.197Z,342
2023-04-21T11:36:24.121Z,348
2023-04-21T11:37:24.004Z,347
2023-04-21T11:38:24.044Z,342
2023-04-21T11:39:23.963Z,341
2023-04-21T11:40:24.150Z,347
2023-04-21T11:41:23.905Z,345
2023-04-21T11:42:24.473Z,344
2023-04-21T11:43:24.116Z,329
2023-04-21T11:44:24.508Z,339
2023-04-21T11:45:24.511Z,341
2023-04-21T11:46:24.564Z,338
2023-04-21T11:47:24.439Z,332
2023-04-21T11:48:24.288Z,345
2023-04-21T11:49:24.048Z,351
2023-04-21T11:50:24.647Z,347
2023-04-21T11:51:24.201Z,351
2023-04-21T11:52:24.656Z,343
2023-04-21T11:53:24.057Z,349
2023-04-21T11:54:24.446Z,358
2023-04-21T11:55:24.743Z,354
2023-04-21T11:56:24.518Z,342
2023-04-21T11:57:24.817Z,335
2023-04-21T11:58:24.395Z,340
2023-04-21T11:59:26.008Z,344
2023-04-21T12:00:25.912Z,352
2023-04-21T12:01:25.240Z,349
2023-04-21T12:02:25.200Z,352
2023-04-21T12:03:25.344Z,354
2023-04-21T12:04:24.295Z,357
2023-04-21T12:05:24.560Z,359
2023-04-21T12:06:24.634Z,357
2023-04-21T12:07:24.019Z,355
2023-04-21T12:08:24.488Z,352
2023-04-21T12:09:24.441Z,339
2023-04-21T12:10:24.563Z,343
2023-04-21T12:11:29.323Z,335
2023-04-21T12:12:24.254Z,340
2023-04-21T12:13:24.189Z,344
2023-04-21T12:14:24.288Z,342
2023-04-21T12:15:24.518Z,345
2023-04-21T12:16:24.493Z,339
2023-04-21T12:17:24.792Z,340
2023-04-21T12:18:24.446Z,332
2023-04-21T12:19:24.072Z,327
2023-04-21T12:20:24.562Z,332
2023-04-21T12:21:24.148Z,337
2023-04-21T12:22:27.359Z,349
2023-04-21T12:23:24.212Z,354
2023-04-21T12:24:24.087Z,346
2023-04-21T12:25:24.555Z,347
2023-04-21T12:26:24.495Z,341
2023-04-21T12:27:24.542Z,339
2023-04-21T12:28:24.403Z,338
2023-04-21T12:30:24.755Z,345
2023-04-21T12:31:24.142Z,341
2023-04-21T12:32:24.313Z,345
2023-04-21T12:33:23.804Z,335
2023-04-21T12:34:23.998Z,338
2023-04-21T12:35:38.277Z,348
2023-04-21T12:36:24.131Z,342
2023-04-21T12:37:37.825Z,349
2023-04-21T12:38:23.876Z,351
2023-04-21T12:39:37.870Z,339
2023-04-21T12:40:24.758Z,340
2023-04-21T12:41:37.897Z,345
2023-04-21T12:42:23.824Z,352
2023-04-21T12:43:24.245Z,358
2023-04-21T12:44:23.886Z,354
2023-04-21T12:45:23.985Z,347
2023-04-21T12:46:24.287Z,349
2023-04-21T12:47:45.519Z,346
2023-04-21T12:48:24.321Z,340
2023-04-21T12:50:24.437Z,351
2023-04-21T12:51:24.165Z,348
2023-04-21T12:52:23.752Z,325
2023-04-21T12:54:23.926Z,339
2023-04-21T12:55:24.062Z,347
2023-04-21T12:56:24.496Z,346
2023-04-21T12:57:23.714Z,341
2023-04-21T12:58:23.950Z,349
2023-04-21T12:59:23.619Z,353
2023-04-21T13:00:25.550Z,350
2023-04-21T13:01:24.415Z,332
2023-04-21T13:02:24.296Z,335
2023-04-21T13:03:24.870Z,346
2023-04-21T13:04:24.908Z,342
2023-04-21T13:05:24.816Z,347
2023-04-21T13:06:24.450Z,336
2023-04-21T13:07:25.060Z,335
2023-04-21T13:09:23.601Z,341
2023-04-21T13:10:24.033Z,349
2023-04-21T13:11:24.135Z,348
2023-04-21T13:12:24.807Z,341
2023-04-21T13:13:25.017Z,340
2023-04-21T13:14:24.073Z,348
2023-04-21T13:15:24.596Z,353
2023-04-21T13:16:24.278Z,352
2023-04-21T13:17:24.352Z,351
2023-04-21T13:18:24.514Z,343
2023-04-21T13:19:24.407Z,348
2023-04-21T13:21:24.152Z,343
2023-04-21T13:22:23.972Z,347
2023-04-21T13:23:24.190Z,345
2023-04-21T13:25:24.421Z,340
2023-04-21T13:26:24.325Z,336
2023-04-21T13:27:23.936Z,342
2023-04-21T13:28:23.716Z,349
2023-04-21T13:29:23.823Z,340
2023-04-21T13:30:24.105Z,336
2023-04-21T13:31:24.242Z,340
2023-04-21T13:32:24.400Z,342
2023-04-21T13:33:24.072Z,336
2023-04-21T13:34:23.908Z,334
2023-04-21T13:35:24.098Z,322
2023-04-21T13:36:24.411Z,314
2023-04-21T13:37:24.185Z,338
2023-04-21T13:38:24.118Z,347
2023-04-21T13:39:24.248Z,352
2023-04-21T13:40:24.442Z,346
2023-04-21T13:41:24.107Z,341
2023-04-21T13:43:24.169Z,344
2023-04-21T13:44:24.080Z,343
2023-04-21T13:45:24.005Z,334
2023-04-21T13:46:24.262Z,341
2023-04-21T13:47:24.709Z,331
2023-04-21T13:49:24.688Z,342
2023-04-21T13:50:24.811Z,356
2023-04-21T13:51:23.984Z,361
2023-04-21T13:52:24.376Z,356
2023-04-21T13:53:24.437Z,361
2023-04-21T13:54:24.768Z,354
2023-04-21T13:55:24.339Z,359
2023-04-21T13:56:24.037Z,350
2023-04-21T13:57:24.721Z,351
2023-04-21T13:58:24.251Z,344
2023-04-21T13:59:24.423Z,340
2023-04-21T14:00:25.193Z,339
2023-04-21T14:01:24.417Z,342
2023-04-21T14:02:24.805Z,334
2023-04-21T14:03:24.774Z,340
2023-04-21T14:04:24.011Z,338
2023-04-21T14:05:24.495Z,339
2023-04-21T14:07:26.394Z,340
2023-04-21T14:08:24.272Z,333
2023-04-21T14:09:24.181Z,354
2023-04-21T14:10:24.525Z,347
2023-04-21T14:11:24.455Z,341
2023-04-21T14:12:24.059Z,350
2023-04-21T14:13:35.729Z,348
2023-04-21T14:14:37.443Z,346
2023-04-21T14:15:24.323Z,329
2023-04-21T14:16:24.444Z,336
2023-04-21T14:17:24.730Z,329
2023-04-21T14:18:24.017Z,331
2023-04-21T14:19:23.986Z,340
2023-04-21T14:20:23.987Z,348
2023-04-21T14:21:24.158Z,338
2023-04-21T14:22:24.300Z,331
2023-04-21T14:23:23.820Z,332
2023-04-21T14:24:23.906Z,335
2023-04-21T14:25:24.657Z,338
2023-04-21T14:26:24.382Z,331
2023-04-21T14:27:24.422Z,338
2023-04-21T14:29:23.690Z,343
2023-04-21T14:30:24.416Z,347
2023-04-21T14:31:24.156Z,330
2023-04-21T14:32:24.886Z,321
2023-04-21T14:33:24.273Z,323
2023-04-21T14:34:23.854Z,332
2023-04-21T14:35:24.461Z,336
2023-04-21T14:36:24.137Z,332
2023-04-21T14:37:24.011Z,343
2023-04-21T14:38:23.657Z,342
2023-04-21T14:39:24.367Z,334
2023-04-21T14:40:24.058Z,339
2023-04-21T14:41:23.841Z,337
2023-04-21T14:42:24.162Z,346
2023-04-21T14:43:23.779Z,339
2023-04-21T14:44:23.814Z,328
2023-04-21T14:45:24.293Z,318
2023-04-21T14:46:29.476Z,326
2023-04-21T14:47:23.999Z,345
2023-04-21T14:48:24.325Z,347
2023-04-21T14:49:23.651Z,337
2023-04-21T14:50:24.702Z,318
2023-04-21T14:51:24.733Z,330
2023-04-21T14:52:24.804Z,332
2023-04-21T14:53:23.837Z,341
2023-04-21T14:54:24.076Z,342
2023-04-21T14:55:24.563Z,344
2023-04-21T14:56:24.275Z,336
2023-04-21T14:57:24.354Z,337
2023-04-21T14:58:24.170Z,334
2023-04-21T14:59:24.115Z,336
2023-04-21T15:00:39.188Z,341
2023-04-21T15:01:25.964Z,337
2023-04-21T15:02:38.101Z,329
2023-04-21T15:03:24.010Z,334